Time,TemperatureF,DewpointF,PressureIn,WindDirection,WindDirectionDegrees,WindSpeedMPH,WindSpeedGustMPH,Humidity,HourlyPrecipIn,Conditions,Clouds,dailyrainin,SoftwareType,DateUTC
2013-06-29 00:00:00,65.3,63.8,29.61,ENE,62,3.0,3.0,95,0.00,,,0.01,Wunderground v.1.15,2013-06-29 04:00:00,
2013-06-29 00:05:00,65.2,63.7,29.61,NW,316,3.0,4.0,95,0.00,,,0.00,Wunderground v.1.15,2013-06-29 04:05:00,
2013-06-29 00:10:00,65.1,63.6,29.61,NE,44,4.0,8.0,95,0.00,,,0.00,Wunderground v.1.15,2013-06-29 04:10:00,
2013-06-29 00:15:00,65.0,63.5,29.61,NW,319,5.0,8.0,95,0.00,,,0.00,Wunderground v.1.15,2013-06-29 04:15:00,
2013-06-29 00:20:00,64.9,63.7,29.61,NNW,332,5.0,5.0,96,0.00,,,0.00,Wunderground v.1.15,2013-06-29 04:20:00,
2013-06-29 00:25:00,64.9,63.7,29.61,NE,47,4.0,5.0,96,0.00,,,0.00,Wunderground v.1.15,2013-06-29 04:25:00,
2013-06-29 00:30:00,64.8,63.6,29.61,ENE,63,3.0,4.0,96,0.00,,,0.00,Wunderground v.1.15,2013-06-29 04:30:00,
2013-06-29 00:35:00,64.7,63.5,29.61,ENE,77,3.0,7.0,96,0.00,,,0.00,Wunderground v.1.15,2013-06-29 04:35:00,
2013-06-29 00:40:00,64.7,63.8,29.61,NE,46,3.0,3.0,97,0.00,,,0.00,Wunderground v.1.15,2013-06-29 04:40:00,
2013-06-29 00:50:00,64.6,63.7,29.61,NE,40,2.0,7.0,97,0.00,,,0.00,Wunderground v.1.15,2013-06-29 04:50:00,
2013-06-29 01:00:00,64.6,63.7,29.60,ENE,70,3.0,3.0,97,0.00,,,0.00,Wunderground v.1.15,2013-06-29 05:00:00,
2013-06-29 01:05:00,64.6,63.7,29.60,NE,52,2.0,7.0,97,0.00,,,0.00,Wunderground v.1.15,2013-06-29 05:05:00,
2013-06-29 01:10:00,64.6,63.7,29.60,NNE,27,2.0,7.0,97,0.00,,,0.00,Wunderground v.1.15,2013-06-29 05:10:00,
2013-06-29 01:15:00,64.5,63.9,29.60,ENE,59,3.0,7.0,98,0.00,,,0.00,Wunderground v.1.15,2013-06-29 05:15:00,
2013-06-29 01:25:00,64.5,63.9,29.60,NE,38,2.0,7.0,98,0.00,,,0.00,Wunderground v.1.15,2013-06-29 05:25:00,
2013-06-29 01:30:00,64.4,63.8,29.60,NE,52,2.0,2.0,98,0.00,,,0.00,Wunderground v.1.15,2013-06-29 05:30:00,
2013-06-29 01:35:00,64.3,63.7,29.60,ENE,57,2.0,7.0,98,0.00,,,0.00,Wunderground v.1.15,2013-06-29 05:35:00,
2013-06-29 01:40:00,64.2,63.6,29.59,NE,56,1.0,1.0,98,0.00,,,0.00,Wunderground v.1.15,2013-06-29 05:40:00,
2013-06-29 01:45:00,64.1,63.5,29.59,ENE,57,0.0,7.0,98,0.00,,,0.00,Wunderground v.1.15,2013-06-29 05:45:00,
2013-06-29 01:55:00,63.8,63.2,29.59,ENE,57,0.0,7.0,98,0.00,,,0.00,Wunderground v.1.15,2013-06-29 05:55:00,
2013-06-29 02:05:00,63.8,63.5,29.59,ENE,58,0.0,7.0,99,0.00,,,0.00,Wunderground v.1.15,2013-06-29 06:05:00,
2013-06-29 02:10:00,63.8,63.5,29.59,ENE,57,0.0,7.0,99,0.00,,,0.00,Wunderground v.1.15,2013-06-29 06:10:00,
2013-06-29 02:15:00,63.8,63.5,29.59,ENE,57,1.0,7.0,99,0.00,,,0.00,Wunderground v.1.15,2013-06-29 06:15:00,
2013-06-29 02:20:00,63.7,63.4,29.59,ENE,57,1.0,7.0,99,0.00,,,0.00,Wunderground v.1.15,2013-06-29 06:20:00,
2013-06-29 02:25:00,63.7,63.4,29.59,NE,56,1.0,7.0,99,0.00,,,0.00,Wunderground v.1.15,2013-06-29 06:25:00,
2013-06-29 02:35:00,63.7,63.4,29.59,NE,52,1.0,7.0,99,0.00,,,0.00,Wunderground v.1.15,2013-06-29 06:35:00,
2013-06-29 02:40:00,63.7,63.4,29.59,NE,41,2.0,7.0,99,0.00,,,0.00,Wunderground v.1.15,2013-06-29 06:40:00,
2013-06-29 02:45:00,63.7,63.4,29.59,ENE,60,3.0,7.0,99,0.00,,,0.00,Wunderground v.1.15,2013-06-29 06:45:00,
2013-06-29 02:50:00,63.6,63.3,29.59,NE,48,3.0,7.0,99,0.00,,,0.00,Wunderground v.1.15,2013-06-29 06:50:00,
2013-06-29 03:00:00,63.5,63.2,29.59,ENE,60,2.0,2.0,99,0.00,,,0.00,Wunderground v.1.15,2013-06-29 07:00:00,
2013-06-29 03:10:00,63.4,63.1,29.59,NE,50,2.0,2.0,99,0.00,,,0.00,Wunderground v.1.15,2013-06-29 07:10:00,
2013-06-29 03:15:00,63.4,63.1,29.59,ENE,63,2.0,2.0,99,0.00,,,0.00,Wunderground v.1.15,2013-06-29 07:15:00,
2013-06-29 03:20:00,63.4,63.4,29.59,NE,48,2.0,4.0,100,0.00,,,0.00,Wunderground v.1.15,2013-06-29 07:20:00,
2013-06-29 03:25:00,63.4,63.4,29.59,NE,53,2.0,4.0,100,0.00,,,0.00,Wunderground v.1.15,2013-06-29 07:25:00,
2013-06-29 03:30:00,63.3,63.3,29.59,NE,46,3.0,4.0,100,0.00,,,0.00,Wunderground v.1.15,2013-06-29 07:30:00,
2013-06-29 03:40:00,63.2,63.2,29.58,NE,53,3.0,3.0,100,0.00,,,0.00,Wunderground v.1.15,2013-06-29 07:40:00,
2013-06-29 03:45:00,63.0,63.0,29.59,NE,56,2.0,3.0,100,0.00,,,0.00,Wunderground v.1.15,2013-06-29 07:45:00,
2013-06-29 03:50:00,62.8,62.8,29.59,NE,56,1.0,1.0,100,0.00,,,0.00,Wunderground v.1.15,2013-06-29 07:50:00,
2013-06-29 04:00:00,62.9,62.9,29.59,NE,54,1.0,1.0,100,0.00,,,0.00,Wunderground v.1.15,2013-06-29 08:00:00,
2013-06-29 04:05:00,62.9,62.9,29.59,NE,54,0.0,3.0,100,0.00,,,0.00,Wunderground v.1.15,2013-06-29 08:05:00,
2013-06-29 04:10:00,62.9,62.9,29.59,NE,53,1.0,1.0,100,0.00,,,0.00,Wunderground v.1.15,2013-06-29 08:10:00,
2013-06-29 04:15:00,62.9,62.9,29.58,NE,53,1.0,3.0,100,0.00,,,0.00,Wunderground v.1.15,2013-06-29 08:15:00,
2013-06-29 04:20:00,62.8,62.8,29.58,NE,53,1.0,3.0,100,0.00,,,0.00,Wunderground v.1.15,2013-06-29 08:20:00,
2013-06-29 04:25:00,62.8,62.8,29.58,NE,56,1.0,3.0,100,0.00,,,0.00,Wunderground v.1.15,2013-06-29 08:25:00,
2013-06-29 04:30:00,62.9,62.9,29.58,NE,56,0.0,3.0,100,0.00,,,0.00,Wunderground v.1.15,2013-06-29 08:30:00,
2013-06-29 04:35:00,62.8,62.8,29.58,NE,56,0.0,3.0,100,0.00,,,0.00,Wunderground v.1.15,2013-06-29 08:35:00,
2013-06-29 04:40:00,62.7,62.7,29.58,ENE,58,0.0,3.0,100,0.00,,,0.00,Wunderground v.1.15,2013-06-29 08:40:00,
2013-06-29 04:45:00,62.7,62.7,29.58,ENE,58,0.0,3.0,100,0.00,,,0.00,Wunderground v.1.15,2013-06-29 08:45:00,
2013-06-29 04:50:00,62.7,62.7,29.59,ENE,58,0.0,3.0,100,0.00,,,0.00,Wunderground v.1.15,2013-06-29 08:50:00,
2013-06-29 04:55:00,62.6,62.6,29.59,ENE,57,1.0,3.0,100,0.00,,,0.00,Wunderground v.1.15,2013-06-29 08:55:00,
2013-06-29 05:05:00,62.5,62.5,29.58,ENE,58,1.0,3.0,100,0.00,,,0.00,Wunderground v.1.15,2013-06-29 09:05:00,
2013-06-29 05:10:00,62.5,62.5,29.59,ENE,58,1.0,1.0,100,0.00,,,0.00,Wunderground v.1.15,2013-06-29 09:10:00,
2013-06-29 05:15:00,62.4,62.4,29.59,ENE,58,0.0,2.0,100,0.00,,,0.00,Wunderground v.1.15,2013-06-29 09:15:00,
2013-06-29 05:20:00,62.4,62.4,29.59,ENE,58,0.0,3.0,100,0.00,,,0.00,Wunderground v.1.15,2013-06-29 09:20:00,
2013-06-29 05:25:00,62.4,62.4,29.59,ENE,58,0.0,3.0,100,0.00,,,0.00,Wunderground v.1.15,2013-06-29 09:25:00,
2013-06-29 05:30:00,62.4,62.4,29.59,ENE,65,0.0,3.0,100,0.00,,,0.00,Wunderground v.1.15,2013-06-29 09:30:00,
2013-06-29 05:35:00,62.3,62.3,29.59,ENE,65,0.0,3.0,100,0.00,,,0.00,Wunderground v.1.15,2013-06-29 09:35:00,
2013-06-29 05:40:00,62.1,62.1,29.59,ENE,63,0.0,3.0,100,0.00,,,0.00,Wunderground v.1.15,2013-06-29 09:40:00,
2013-06-29 05:45:00,62.0,62.0,29.59,ENE,63,0.0,3.0,100,0.00,,,0.00,Wunderground v.1.15,2013-06-29 09:45:00,
2013-06-29 05:55:00,62.0,62.0,29.59,ENE,63,0.0,3.0,100,0.00,,,0.00,Wunderground v.1.15,2013-06-29 09:55:00,
2013-06-29 06:05:00,61.9,61.9,29.59,ENE,63,0.0,3.0,100,0.00,,,0.00,Wunderground v.1.15,2013-06-29 10:05:00,
2013-06-29 06:10:00,61.8,61.8,29.60,ENE,63,1.0,1.0,100,0.00,,,0.00,Wunderground v.1.15,2013-06-29 10:10:00,
2013-06-29 06:15:00,61.7,61.7,29.60,ENE,64,0.0,3.0,100,0.00,,,0.00,Wunderground v.1.15,2013-06-29 10:15:00,
2013-06-29 06:20:00,61.6,61.6,29.60,ENE,63,0.0,3.0,100,0.00,,,0.00,Wunderground v.1.15,2013-06-29 10:20:00,
2013-06-29 06:30:00,61.6,61.6,29.60,ENE,63,0.0,3.0,100,0.00,,,0.00,Wunderground v.1.15,2013-06-29 10:30:00,
2013-06-29 06:35:00,61.6,61.6,29.60,ENE,63,0.0,3.0,100,0.00,,,0.00,Wunderground v.1.15,2013-06-29 10:35:00,
2013-06-29 06:45:00,61.7,61.7,29.60,ENE,65,0.0,3.0,100,0.00,,,0.00,Wunderground v.1.15,2013-06-29 10:45:00,
2013-06-29 06:50:00,61.8,61.8,29.60,ENE,63,0.0,3.0,100,0.00,,,0.00,Wunderground v.1.15,2013-06-29 10:50:00,
2013-06-29 06:55:00,61.8,61.8,29.60,ENE,63,0.0,3.0,100,0.00,,,0.00,Wunderground v.1.15,2013-06-29 10:55:00,
2013-06-29 07:00:00,61.6,61.6,29.60,East,82,0.0,1.0,100,0.00,,,0.00,Wunderground v.1.15,2013-06-29 11:00:00,
2013-06-29 07:10:00,61.7,61.7,29.60,East,82,1.0,3.0,100,0.00,,,0.00,Wunderground v.1.15,2013-06-29 11:10:00,
2013-06-29 07:15:00,61.9,61.9,29.60,East,84,1.0,3.0,100,0.00,,,0.00,Wunderground v.1.15,2013-06-29 11:15:00,
2013-06-29 07:20:00,62.1,62.1,29.61,East,83,1.0,2.0,100,0.00,,,0.00,Wunderground v.1.15,2013-06-29 11:20:00,
2013-06-29 07:25:00,62.5,62.5,29.60,East,85,1.0,2.0,100,0.00,,,0.00,Wunderground v.1.15,2013-06-29 11:25:00,
2013-06-29 07:35:00,62.5,62.5,29.61,East,88,1.0,2.0,100,0.00,,,0.00,Wunderground v.1.15,2013-06-29 11:35:00,
2013-06-29 07:45:00,63.0,63.0,29.61,East,88,1.0,3.0,100,0.00,,,0.00,Wunderground v.1.15,2013-06-29 11:45:00,
2013-06-29 07:50:00,63.1,63.1,29.61,East,88,2.0,2.0,100,0.00,,,0.00,Wunderground v.1.15,2013-06-29 11:50:00,
2013-06-29 07:55:00,63.3,63.3,29.61,East,88,2.0,2.0,100,0.00,,,0.00,Wunderground v.1.15,2013-06-29 11:55:00,
2013-06-29 08:00:00,63.3,63.3,29.61,ENE,60,2.0,2.0,100,0.00,,,0.00,Wunderground v.1.15,2013-06-29 12:00:00,
2013-06-29 08:05:00,63.1,63.1,29.61,East,93,3.0,5.0,100,0.00,,,0.00,Wunderground v.1.15,2013-06-29 12:05:00,
2013-06-29 08:15:00,63.2,63.2,29.61,East,89,5.0,5.0,100,0.00,,,0.00,Wunderground v.1.15,2013-06-29 12:15:00,
2013-06-29 08:20:00,63.5,63.5,29.61,East,89,4.0,4.0,100,0.00,,,0.00,Wunderground v.1.15,2013-06-29 12:20:00,
2013-06-29 08:25:00,63.7,63.7,29.61,East,89,2.0,5.0,100,0.00,,,0.00,Wunderground v.1.15,2013-06-29 12:25:00,
2013-06-29 08:30:00,63.7,63.4,29.61,East,90,3.0,3.0,99,0.00,,,0.00,Wunderground v.1.15,2013-06-29 12:30:00,
2013-06-29 08:40:00,64.0,63.7,29.62,East,97,4.0,4.0,99,0.00,,,0.00,Wunderground v.1.15,2013-06-29 12:40:00,
2013-06-29 08:50:00,64.2,63.3,29.62,East,91,2.0,3.0,97,0.00,,,0.00,Wunderground v.1.15,2013-06-29 12:50:00,
2013-06-29 08:55:00,64.0,62.8,29.62,East,91,2.0,3.0,96,0.00,,,0.00,Wunderground v.1.15,2013-06-29 12:55:00,
2013-06-29 09:00:00,64.1,63.2,29.62,East,91,3.0,4.0,97,0.00,,,0.00,Wunderground v.1.15,2013-06-29 13:00:00,
2013-06-29 09:05:00,64.3,63.1,29.62,East,91,3.0,4.0,96,0.00,,,0.00,Wunderground v.1.15,2013-06-29 13:05:00,
2013-06-29 09:10:00,64.4,63.2,29.62,East,92,3.0,3.0,96,0.00,,,0.00,Wunderground v.1.15,2013-06-29 13:10:00,
2013-06-29 09:20:00,65.1,63.6,29.62,East,101,3.0,3.0,95,0.00,,,0.00,Wunderground v.1.15,2013-06-29 13:20:00,
2013-06-29 09:25:00,66.0,64.5,29.62,East,91,2.0,4.0,95,0.00,,,0.00,Wunderground v.1.15,2013-06-29 13:25:00,
2013-06-29 09:30:00,66.6,64.2,29.62,East,91,2.0,2.0,92,0.00,,,0.00,Wunderground v.1.15,2013-06-29 13:30:00,
2013-06-29 09:40:00,67.0,64.3,29.63,East,96,2.0,2.0,91,0.00,,,0.00,Wunderground v.1.15,2013-06-29 13:40:00,
2013-06-29 09:45:00,67.3,64.3,29.63,East,96,1.0,2.0,90,0.00,,,0.00,Wunderground v.1.15,2013-06-29 13:45:00,
2013-06-29 09:55:00,66.6,63.9,29.63,East,101,5.0,9.0,91,0.00,,,0.00,Wunderground v.1.15,2013-06-29 13:55:00,
2013-06-29 10:00:00,66.6,63.9,29.63,East,97,6.0,8.0,91,0.00,,,0.00,Wunderground v.1.15,2013-06-29 14:00:00,
2013-06-29 10:10:00,66.7,63.7,29.63,East,96,6.0,6.0,90,0.00,,,0.00,Wunderground v.1.15,2013-06-29 14:10:00,
2013-06-29 10:15:00,66.9,63.6,29.63,East,87,5.0,6.0,89,0.00,,,0.00,Wunderground v.1.15,2013-06-29 14:15:00,
2013-06-29 10:25:00,67.4,63.7,29.62,East,101,3.0,5.0,88,0.00,,,0.00,Wunderground v.1.15,2013-06-29 14:25:00,
2013-06-29 10:30:00,67.4,64.0,29.62,East,86,4.0,4.0,89,0.00,,,0.00,Wunderground v.1.15,2013-06-29 14:30:00,
2013-06-29 10:40:00,67.4,64.0,29.62,East,86,3.0,7.0,89,0.00,,,0.00,Wunderground v.1.15,2013-06-29 14:40:00,
2013-06-29 10:45:00,67.2,64.2,29.62,East,94,4.0,7.0,90,0.00,,,0.00,Wunderground v.1.15,2013-06-29 14:45:00,
2013-06-29 10:50:00,66.8,63.8,29.62,East,91,5.0,5.0,90,0.00,,,0.00,Wunderground v.1.15,2013-06-29 14:50:00,
2013-06-29 10:55:00,66.4,63.4,29.62,East,87,5.0,7.0,90,0.00,,,0.00,Wunderground v.1.15,2013-06-29 14:55:00,
2013-06-29 11:05:00,67.2,63.8,29.62,East,87,2.0,7.0,89,0.00,,,0.00,Wunderground v.1.15,2013-06-29 15:05:00,
2013-06-29 11:15:00,68.7,65.0,29.63,East,87,1.0,7.0,88,0.00,,,0.00,Wunderground v.1.15,2013-06-29 15:15:00,
2013-06-29 11:20:00,68.6,64.2,29.62,East,98,2.0,7.0,86,0.00,,,0.00,Wunderground v.1.15,2013-06-29 15:20:00,
2013-06-29 11:25:00,68.6,64.9,29.63,East,96,3.0,7.0,88,0.00,,,0.00,Wunderground v.1.15,2013-06-29 15:25:00,
2013-06-29 11:30:00,68.4,64.4,29.62,East,91,3.0,3.0,87,0.00,,,0.00,Wunderground v.1.15,2013-06-29 15:30:00,
2013-06-29 11:35:00,68.5,64.8,29.62,East,98,3.0,4.0,88,0.00,,,0.00,Wunderground v.1.15,2013-06-29 15:35:00,
2013-06-29 11:45:00,68.6,64.9,29.63,East,97,4.0,7.0,88,0.00,,,0.00,Wunderground v.1.15,2013-06-29 15:45:00,
2013-06-29 11:50:00,68.9,65.2,29.63,East,96,3.0,7.0,88,0.00,,,0.00,Wunderground v.1.15,2013-06-29 15:50:00,
2013-06-29 11:55:00,68.8,64.8,29.63,East,98,4.0,7.0,87,0.00,,,0.00,Wunderground v.1.15,2013-06-29 15:55:00,
2013-06-29 12:00:00,68.5,64.1,29.63,East,98,4.0,4.0,86,0.00,,,0.00,Wunderground v.1.15,2013-06-29 16:00:00,
2013-06-29 12:10:00,69.1,64.7,29.63,East,86,5.0,6.0,86,0.00,,,0.00,Wunderground v.1.15,2013-06-29 16:10:00,
2013-06-29 12:20:00,69.6,64.9,29.62,SE,129,4.0,4.0,85,0.00,,,0.00,Wunderground v.1.15,2013-06-29 16:20:00,
2013-06-29 12:25:00,70.0,65.3,29.62,SE,125,3.0,4.0,85,0.00,,,0.00,Wunderground v.1.15,2013-06-29 16:25:00,
2013-06-29 12:30:00,69.9,65.2,29.62,ESE,105,3.0,3.0,85,0.00,,,0.00,Wunderground v.1.15,2013-06-29 16:30:00,
2013-06-29 12:35:00,70.2,65.5,29.63,East,97,4.0,5.0,85,0.00,,,0.00,Wunderground v.1.15,2013-06-29 16:35:00,
2013-06-29 12:40:00,70.2,65.1,29.62,ENE,76,5.0,5.0,84,0.00,,,0.00,Wunderground v.1.15,2013-06-29 16:40:00,
2013-06-29 12:45:00,69.8,65.4,29.63,East,98,7.0,7.0,86,0.00,,,0.00,Wunderground v.1.15,2013-06-29 16:45:00,
2013-06-29 12:55:00,69.6,65.9,29.63,East,91,7.0,8.0,88,0.00,,,0.00,Wunderground v.1.15,2013-06-29 16:55:00,
2013-06-29 13:05:00,68.7,65.3,29.63,East,101,8.0,9.0,89,0.00,,,0.00,Wunderground v.1.15,2013-06-29 17:05:00,
2013-06-29 13:10:00,68.7,65.6,29.63,East,97,8.0,8.0,90,0.00,,,0.00,Wunderground v.1.15,2013-06-29 17:10:00,
2013-06-29 13:15:00,68.5,65.4,29.63,East,98,7.0,8.0,90,0.00,,,0.00,Wunderground v.1.15,2013-06-29 17:15:00,
2013-06-29 13:20:00,68.6,65.2,29.63,ENE,71,9.0,9.0,89,0.00,,,0.00,Wunderground v.1.15,2013-06-29 17:20:00,
2013-06-29 13:30:00,69.0,64.6,29.63,ESE,102,6.0,6.0,86,0.00,,,0.00,Wunderground v.1.15,2013-06-29 17:30:00,
2013-06-29 13:35:00,69.5,65.1,29.63,East,96,4.0,8.0,86,0.00,,,0.00,Wunderground v.1.15,2013-06-29 17:35:00,
2013-06-29 13:40:00,70.1,65.7,29.63,East,96,3.0,8.0,86,0.00,,,0.00,Wunderground v.1.15,2013-06-29 17:40:00,
2013-06-29 13:45:00,70.3,65.6,29.63,East,96,4.0,8.0,85,0.00,,,0.00,Wunderground v.1.15,2013-06-29 17:45:00,
2013-06-29 13:55:00,70.3,65.2,29.63,East,84,6.0,8.0,84,0.00,,,0.00,Wunderground v.1.15,2013-06-29 17:55:00,
2013-06-29 14:00:00,71.3,65.9,29.62,East,85,5.0,5.0,83,0.00,,,0.00,Wunderground v.1.15,2013-06-29 18:00:00,
2013-06-29 14:10:00,71.5,65.7,29.62,East,97,4.0,9.0,82,0.00,,,0.00,Wunderground v.1.15,2013-06-29 18:10:00,
2013-06-29 14:15:00,71.7,66.3,29.62,East,91,5.0,9.0,83,0.00,,,0.00,Wunderground v.1.15,2013-06-29 18:15:00,
2013-06-29 14:20:00,71.6,66.2,29.63,East,97,5.0,9.0,83,0.00,,,0.00,Wunderground v.1.15,2013-06-29 18:20:00,
2013-06-29 14:25:00,71.6,65.5,29.63,East,97,5.0,9.0,81,0.00,,,0.00,Wunderground v.1.15,2013-06-29 18:25:00,
2013-06-29 14:35:00,71.5,65.0,29.62,East,89,5.0,14.0,80,0.00,,,0.00,Wunderground v.1.15,2013-06-29 18:35:00,
2013-06-29 14:40:00,72.2,65.3,29.62,East,89,3.0,3.0,79,0.00,,,0.00,Wunderground v.1.15,2013-06-29 18:40:00,
2013-06-29 14:45:00,72.4,65.2,29.62,ENE,70,2.0,4.0,78,0.00,,,0.00,Wunderground v.1.15,2013-06-29 18:45:00,
2013-06-29 14:55:00,73.1,65.8,29.62,East,86,1.0,3.0,78,0.00,,,0.00,Wunderground v.1.15,2013-06-29 18:55:00,
2013-06-29 15:00:00,72.8,65.2,29.62,East,96,2.0,2.0,77,0.00,,,0.00,Wunderground v.1.15,2013-06-29 19:00:00,
2013-06-29 15:10:00,73.6,65.9,29.62,ENE,57,2.0,2.0,77,0.00,,,0.00,Wunderground v.1.15,2013-06-29 19:10:00,
2013-06-29 15:15:00,74.0,66.3,29.62,NNE,31,2.0,6.0,77,0.00,,,0.00,Wunderground v.1.15,2013-06-29 19:15:00,
2013-06-29 15:20:00,74.0,65.2,29.62,NNE,29,2.0,14.0,74,0.00,,,0.00,Wunderground v.1.15,2013-06-29 19:20:00,
2013-06-29 15:25:00,73.9,65.9,29.62,NE,50,3.0,14.0,76,0.00,,,0.00,Wunderground v.1.15,2013-06-29 19:25:00,
2013-06-29 15:30:00,74.0,65.2,29.63,East,87,4.0,4.0,74,0.00,,,0.00,Wunderground v.1.15,2013-06-29 19:30:00,
2013-06-29 15:35:00,74.0,65.2,29.63,East,87,4.0,14.0,74,0.00,,,0.00,Wunderground v.1.15,2013-06-29 19:35:00,
2013-06-29 15:45:00,73.8,65.4,29.63,NE,47,3.0,14.0,75,0.00,,,0.00,Wunderground v.1.15,2013-06-29 19:45:00,
2013-06-29 15:50:00,74.1,65.7,29.63,NE,49,2.0,2.0,75,0.00,,,0.00,Wunderground v.1.15,2013-06-29 19:50:00,
2013-06-29 16:00:00,73.9,65.5,29.63,NE,53,2.0,2.0,75,0.00,,,0.00,Wunderground v.1.15,2013-06-29 20:00:00,
2013-06-29 16:10:00,73.6,65.6,29.63,NW,324,2.0,2.0,76,0.00,,,0.00,Wunderground v.1.15,2013-06-29 20:10:00,
2013-06-29 16:20:00,73.5,65.5,29.62,West,269,2.0,2.0,76,0.00,,,0.00,Wunderground v.1.15,2013-06-29 20:20:00,
2013-06-29 16:25:00,73.5,65.8,29.63,West,266,2.0,2.0,77,0.00,,,0.00,Wunderground v.1.15,2013-06-29 20:25:00,
2013-06-29 16:30:00,73.8,66.1,29.63,West,278,1.0,2.0,77,0.00,,,0.00,Wunderground v.1.15,2013-06-29 20:30:00,
2013-06-29 16:35:00,74.2,65.8,29.63,West,278,1.0,8.0,75,0.00,,,0.00,Wunderground v.1.15,2013-06-29 20:35:00,
2013-06-29 16:40:00,74.0,65.2,29.63,West,278,2.0,2.0,74,0.00,,,0.00,Wunderground v.1.15,2013-06-29 20:40:00,
2013-06-29 16:50:00,74.4,65.6,29.64,East,91,2.0,17.0,74,0.00,,,0.00,Wunderground v.1.15,2013-06-29 20:50:00,
2013-06-29 17:00:00,67.7,59.1,29.64,ESE,103,17.0,22.0,74,0.00,,,0.00,Wunderground v.1.15,2013-06-29 21:00:00,
2013-06-29 17:05:00,66.4,61.1,29.65,ESE,108,17.0,22.0,83,0.00,,,0.00,Wunderground v.1.15,2013-06-29 21:05:00,
2013-06-29 17:10:00,66.4,60.0,29.65,ESE,113,16.0,16.0,80,0.00,,,0.00,Wunderground v.1.15,2013-06-29 21:10:00,
2013-06-29 17:15:00,66.4,60.4,29.65,East,96,12.0,16.0,81,0.00,,,0.00,Wunderground v.1.15,2013-06-29 21:15:00,
2013-06-29 17:25:00,66.0,60.3,29.65,ESE,114,9.0,14.0,82,0.00,,,0.00,Wunderground v.1.15,2013-06-29 21:25:00,
2013-06-29 17:30:00,65.5,60.5,29.65,SE,136,8.0,8.0,84,0.00,,,0.01,Wunderground v.1.15,2013-06-29 21:30:00,
2013-06-29 17:35:00,64.5,60.5,29.65,East,100,7.0,8.0,87,0.23,,,0.03,Wunderground v.1.15,2013-06-29 21:35:00,
2013-06-29 17:40:00,63.8,60.5,29.65,East,92,6.0,8.0,89,0.14,,,0.04,Wunderground v.1.15,2013-06-29 21:40:00,
2013-06-29 17:45:00,63.8,60.8,29.65,East,83,7.0,8.0,90,0.88,,,0.08,Wunderground v.1.15,2013-06-29 21:45:00,
2013-06-29 17:55:00,63.9,61.5,29.65,East,86,6.0,8.0,92,0.16,,,0.12,Wunderground v.1.15,2013-06-29 21:55:00,
2013-06-29 18:05:00,64.5,61.5,29.65,East,80,6.0,6.0,90,0.06,,,0.13,Wunderground v.1.15,2013-06-29 22:05:00,
2013-06-29 18:10:00,64.6,61.9,29.65,ENE,76,5.0,5.0,91,0.06,,,0.13,Wunderground v.1.15,2013-06-29 22:10:00,
2013-06-29 18:15:00,64.7,62.6,29.65,East,89,4.0,5.0,93,0.05,,,0.13,Wunderground v.1.15,2013-06-29 22:15:00,
2013-06-29 18:20:00,64.7,62.9,29.66,East,96,2.0,2.0,94,0.00,,,0.13,Wunderground v.1.15,2013-06-29 22:20:00,
2013-06-29 18:25:00,65.0,63.5,29.66,East,89,3.0,3.0,95,0.00,,,0.13,Wunderground v.1.15,2013-06-29 22:25:00,
2013-06-29 18:35:00,65.5,64.3,29.66,East,91,2.0,29.0,96,0.00,,,0.13,Wunderground v.1.15,2013-06-29 22:35:00,
2013-06-29 18:40:00,65.8,64.6,29.66,East,91,2.0,29.0,96,0.00,,,0.13,Wunderground v.1.15,2013-06-29 22:40:00,
2013-06-29 18:45:00,65.9,64.7,29.66,ENE,70,3.0,29.0,96,0.00,,,0.13,Wunderground v.1.15,2013-06-29 22:45:00,
2013-06-29 18:55:00,66.0,64.5,29.66,East,80,5.0,29.0,95,0.00,,,0.13,Wunderground v.1.15,2013-06-29 22:55:00,
2013-06-29 19:00:00,66.1,64.6,29.67,East,94,5.0,5.0,95,0.00,,,0.13,Wunderground v.1.15,2013-06-29 23:00:00,
2013-06-29 19:10:00,65.9,64.1,29.67,East,97,7.0,29.0,94,0.00,,,0.13,Wunderground v.1.15,2013-06-29 23:10:00,
2013-06-29 19:15:00,65.9,64.1,29.67,East,101,8.0,29.0,94,0.00,,,0.13,Wunderground v.1.15,2013-06-29 23:15:00,
2013-06-29 19:20:00,65.9,64.4,29.67,East,88,7.0,29.0,95,0.00,,,0.13,Wunderground v.1.15,2013-06-29 23:20:00,
2013-06-29 19:25:00,65.9,64.4,29.67,East,88,6.0,29.0,95,0.00,,,0.13,Wunderground v.1.15,2013-06-29 23:25:00,
2013-06-29 19:30:00,66.0,64.8,29.67,East,97,5.0,5.0,96,0.00,,,0.13,Wunderground v.1.15,2013-06-29 23:30:00,
2013-06-29 19:40:00,66.2,65.0,29.67,ESE,115,5.0,29.0,96,0.00,,,0.13,Wunderground v.1.15,2013-06-29 23:40:00,
2013-06-29 19:45:00,66.0,64.5,29.68,SE,142,6.0,29.0,95,0.00,,,0.13,Wunderground v.1.15,2013-06-29 23:45:00,
2013-06-29 19:50:00,65.9,64.4,29.68,East,99,6.0,6.0,95,0.00,,,0.13,Wunderground v.1.15,2013-06-29 23:50:00,
2013-06-29 20:00:00,65.8,64.6,29.68,East,96,4.0,5.0,96,0.00,,,0.13,Wunderground v.1.15,2013-06-30 00:00:00,
2013-06-29 20:10:00,65.7,64.2,29.68,East,96,6.0,6.0,95,0.00,,,0.13,Wunderground v.1.15,2013-06-30 00:10:00,
2013-06-29 20:15:00,65.7,64.5,29.68,East,98,5.0,6.0,96,0.00,,,0.13,Wunderground v.1.15,2013-06-30 00:15:00,
2013-06-29 20:20:00,65.6,64.4,29.68,East,101,4.0,4.0,96,0.00,,,0.13,Wunderground v.1.15,2013-06-30 00:20:00,
2013-06-29 20:25:00,65.5,64.3,29.68,East,98,4.0,4.0,96,0.00,,,0.13,Wunderground v.1.15,2013-06-30 00:25:00,
2013-06-29 20:30:00,65.4,64.2,29.69,ESE,110,4.0,4.0,96,0.00,,,0.13,Wunderground v.1.15,2013-06-30 00:30:00,
2013-06-29 20:35:00,65.3,64.1,29.69,East,100,5.0,5.0,96,0.00,,,0.13,Wunderground v.1.15,2013-06-30 00:35:00,
2013-06-29 20:40:00,65.1,63.9,29.69,SE,125,5.0,12.0,96,0.00,,,0.13,Wunderground v.1.15,2013-06-30 00:40:00,
2013-06-29 20:45:00,64.9,63.7,29.70,ESE,114,5.0,12.0,96,0.00,,,0.13,Wunderground v.1.15,2013-06-30 00:45:00,
2013-06-29 20:55:00,64.7,63.5,29.71,ESE,121,5.0,12.0,96,0.00,,,0.13,Wunderground v.1.15,2013-06-30 00:55:00,
2013-06-29 21:00:00,64.6,63.4,29.70,SE,125,6.0,12.0,96,0.00,,,0.13,Wunderground v.1.15,2013-06-30 01:00:00,
2013-06-29 21:05:00,64.5,63.3,29.71,ESE,119,6.0,12.0,96,0.00,,,0.13,Wunderground v.1.15,2013-06-30 01:05:00,
2013-06-29 21:10:00,64.3,63.4,29.71,East,96,5.0,5.0,97,0.00,,,0.13,Wunderground v.1.15,2013-06-30 01:10:00,
2013-06-29 21:15:00,64.3,63.4,29.71,ESE,121,4.0,6.0,97,0.00,,,0.13,Wunderground v.1.15,2013-06-30 01:15:00,
2013-06-29 21:25:00,64.1,63.2,29.71,ESE,120,4.0,12.0,97,0.00,,,0.13,Wunderground v.1.15,2013-06-30 01:25:00,
2013-06-29 21:30:00,64.1,63.5,29.72,ESE,111,4.0,4.0,98,0.00,,,0.13,Wunderground v.1.15,2013-06-30 01:30:00,
2013-06-29 21:35:00,64.1,63.5,29.72,East,101,4.0,12.0,98,0.00,,,0.13,Wunderground v.1.15,2013-06-30 01:35:00,
2013-06-29 21:40:00,64.0,63.4,29.72,East,100,4.0,12.0,98,0.00,,,0.13,Wunderground v.1.15,2013-06-30 01:40:00,
2013-06-29 21:50:00,64.0,63.4,29.72,ESE,102,4.0,4.0,98,0.00,,,0.13,Wunderground v.1.15,2013-06-30 01:50:00,
2013-06-29 22:00:00,63.8,63.2,29.72,ESE,117,4.0,5.0,98,0.00,,,0.13,Wunderground v.1.15,2013-06-30 02:00:00,
2013-06-29 22:10:00,63.7,63.4,29.72,ESE,115,4.0,5.0,99,0.00,,,0.13,Wunderground v.1.15,2013-06-30 02:10:00,
2013-06-29 22:15:00,63.7,63.4,29.72,ESE,117,4.0,5.0,99,0.00,,,0.13,Wunderground v.1.15,2013-06-30 02:15:00,
2013-06-29 22:20:00,63.6,63.3,29.72,ESE,117,4.0,5.0,99,0.00,,,0.13,Wunderground v.1.15,2013-06-30 02:20:00,
2013-06-29 22:30:00,63.6,63.3,29.73,ESE,121,4.0,4.0,99,0.00,,,0.14,Wunderground v.1.15,2013-06-30 02:30:00,
2013-06-29 22:35:00,63.6,63.3,29.73,ESE,113,4.0,11.0,99,0.00,,,0.14,Wunderground v.1.15,2013-06-30 02:35:00,
2013-06-29 22:40:00,63.5,63.2,29.73,SE,124,5.0,11.0,99,0.00,,,0.14,Wunderground v.1.15,2013-06-30 02:40:00,
2013-06-29 22:50:00,63.5,63.2,29.74,SE,125,5.0,5.0,99,0.00,,,0.14,Wunderground v.1.15,2013-06-30 02:50:00,
2013-06-29 22:55:00,63.5,63.2,29.74,ESE,106,4.0,11.0,99,0.00,,,0.14,Wunderground v.1.15,2013-06-30 02:55:00,
2013-06-29 23:05:00,63.4,63.1,29.74,ESE,115,4.0,11.0,99,0.00,,,0.14,Wunderground v.1.15,2013-06-30 03:05:00,
2013-06-29 23:10:00,63.4,63.1,29.74,ESE,111,4.0,11.0,99,0.00,,,0.14,Wunderground v.1.15,2013-06-30 03:10:00,
2013-06-29 23:15:00,63.4,63.1,29.74,ESE,114,4.0,11.0,99,0.00,,,0.14,Wunderground v.1.15,2013-06-30 03:15:00,
2013-06-29 23:20:00,63.5,63.2,29.74,SE,124,4.0,11.0,99,0.00,,,0.14,Wunderground v.1.15,2013-06-30 03:20:00,
2013-06-29 23:25:00,63.5,63.2,29.74,ESE,121,4.0,11.0,99,0.00,,,0.14,Wunderground v.1.15,2013-06-30 03:25:00,
2013-06-29 23:30:00,63.5,63.2,29.74,ESE,121,5.0,11.0,99,0.00,,,0.14,Wunderground v.1.15,2013-06-30 03:30:00,
2013-06-29 23:40:00,63.6,63.3,29.74,SE,134,6.0,11.0,99,0.00,,,0.14,Wunderground v.1.15,2013-06-30 03:40:00,
2013-06-29 23:50:00,63.8,63.5,29.74,ESE,103,7.0,7.0,99,0.00,,,0.14,Wunderground v.1.15,2013-06-30 03:50:00,
2013-06-29 23:55:00,63.8,63.5,29.74,SE,124,7.0,8.0,99,0.00,,,0.14,Wunderground v.1.15,2013-06-30 03:55:00,